Time;durP1;ratioP1;P1;durP2;ratioP2;P2;SDS_P1;SDS_P2;PMS_P1;PMS_P2;Temp;Humidity;BMP_temperature;BMP_pressure;BME280_temperature;BME280_humidity;BME280_pressure;Samples;Min_cycle;Max_cycle;Signal;HPM_P1;HPM_P2
2022/08/19 00:01:43;;;;;;;49.00;23.10;;;;;;;21.86;100.00;97392.03;5010665;28;20634;-60
2022/08/19 00:04:11;;;;;;;56.13;25.98;;;;;;;21.87;100.00;97396.34;5010782;28;20034;-60
2022/08/19 00:06:40;;;;;;;51.15;22.38;;;;;;;22.03;100.00;97390.38;5010378;28;20133;-60
2022/08/19 00:09:08;;;;;;;48.65;21.13;;;;;;;22.08;100.00;97388.13;5009826;28;20034;-60
2022/08/19 00:11:35;;;;;;;41.55;19.90;;;;;;;21.91;100.00;97397.75;5006796;28;20040;-60
2022/08/19 00:14:01;;;;;;;38.55;20.30;;;;;;;21.92;100.00;97399.41;5008820;28;20112;-60
2022/08/19 00:16:27;;;;;;;47.55;22.90;;;;;;;21.88;100.00;97403.34;5014951;28;20462;-60
2022/08/19 00:18:55;;;;;;;50.50;24.25;;;;;;;22.01;100.00;97393.19;5014313;28;20025;-61
2022/08/19 00:21:20;;;;;;;56.17;24.30;;;;;;;22.17;100.00;97381.91;5012220;28;20030;-60
2022/08/19 00:23:46;;;;;;;52.50;23.58;;;;;;;21.74;100.00;97391.38;5015872;28;20395;-61
2022/08/19 00:26:12;;;;;;;54.75;25.33;;;;;;;21.92;100.00;97394.09;5014488;28;20142;-60
2022/08/19 00:28:37;;;;;;;47.03;21.23;;;;;;;22.09;100.00;97387.97;5011568;28;20029;-61
2022/08/19 00:31:05;;;;;;;49.97;20.95;;;;;;;22.09;100.00;97384.47;5012387;28;20033;-60
2022/08/19 00:33:34;;;;;;;54.78;20.88;;;;;;;22.27;100.00;97395.13;5015101;28;20048;-61
2022/08/19 00:36:01;;;;;;;36.45;21.05;;;;;;;22.25;100.00;97391.78;5013096;28;20045;-61
2022/08/19 00:38:27;;;;;;;49.30;20.70;;;;;;;22.38;100.00;97397.56;5012432;28;20034;-61
2022/08/19 00:40:52;;;;;;;52.72;23.58;;;;;;;21.91;100.00;97403.06;5014190;28;20060;-61
2022/08/19 00:43:20;;;;;;;45.25;21.13;;;;;;;22.06;100.00;97406.03;5013433;28;20036;-60
2022/08/19 00:45:47;;;;;;;42.58;21.15;;;;;;;22.03;100.00;97398.34;5012829;28;20133;-60
2022/08/19 00:48:12;;;;;;;50.40;21.20;;;;;;;22.02;100.00;97402.84;5013917;28;20041;-61
2022/08/19 00:50:42;;;;;;;58.28;25.25;;;;;;;22.05;100.00;97405.19;5012498;28;20089;-61
2022/08/19 00:53:10;;;;;;;45.35;21.60;;;;;;;21.95;100.00;97409.72;5015179;28;20094;-60
2022/08/19 00:55:38;;;;;;;42.63;16.02;;;;;;;22.46;100.00;97412.75;5012230;28;20038;-61
2022/08/19 00:58:09;;;;;;;50.65;21.90;;;;;;;21.92;100.00;97410.00;5009678;28;20694;-60
2022/08/19 01:00:37;;;;;;;48.25;21.17;;;;;;;22.24;100.00;97403.38;5011868;28;20034;-61
2022/08/19 01:03:05;;;;;;;45.22;22.25;;;;;;;22.03;100.00;97407.16;5015170;28;20083;-61
2022/08/19 01:05:31;;;;;;;46.65;20.45;;;;;;;22.14;100.00;97401.63;5012598;28;20041;-61
2022/08/19 01:08:02;;;;;;;50.63;21.90;;;;;;;21.97;100.00;97396.31;5013952;28;20143;-61
2022/08/19 01:10:30;;;;;;;46.95;22.13;;;;;;;21.85;100.00;97398.31;5013303;28;20042;-60
2022/08/19 01:12:58;;;;;;;54.65;21.55;;;;;;;22.03;100.00;97399.19;5013284;28;20029;-60
2022/08/19 01:15:29;;;;;;;45.30;20.02;;;;;;;21.96;100.00;97395.44;5010613;28;20137;-61
2022/08/19 01:17:56;;;;;;;46.30;20.23;;;;;;;22.06;100.00;97390.94;5011265;28;20106;-61
2022/08/19 01:20:23;;;;;;;46.35;21.38;;;;;;;22.12;100.00;97408.06;5012443;28;20030;-63
2022/08/19 01:22:52;;;;;;;49.22;21.45;;;;;;;21.97;100.00;97399.78;5013172;28;20022;-60
2022/08/19 01:25:21;;;;;;;36.58;16.70;;;;;;;22.20;100.00;97407.31;5011858;28;20148;-61
2022/08/19 01:27:49;;;;;;;41.45;18.17;;;;;;;22.33;100.00;97402.50;5013593;28;20112;-61
2022/08/19 01:30:19;;;;;;;43.35;17.92;;;;;;;22.08;100.00;97407.53;5012571;28;20029;-60
2022/08/19 01:32:45;;;;;;;42.35;20.38;;;;;;;22.09;100.00;97411.03;5013321;28;20732;-61
2022/08/19 01:35:12;;;;;;;45.90;19.58;;;;;;;21.99;100.00;97400.47;5012574;28;20029;-59
2022/08/19 01:37:48;;;;;;;39.67;17.98;;;;;;;22.07;100.00;97405.84;5013339;28;20685;-60
2022/08/19 01:40:13;;;;;;;49.97;19.25;;;;;;;21.86;100.00;97413.28;5011820;28;20060;-60
2022/08/19 01:42:39;;;;;;;41.60;17.30;;;;;;;22.29;100.00;97412.59;5010456;28;20136;-59
2022/08/19 01:45:06;;;;;;;51.72;20.83;;;;;;;22.09;100.00;97422.50;5011587;28;20057;-58
2022/08/19 01:47:35;;;;;;;47.63;21.85;;;;;;;22.01;100.00;97419.75;5013090;28;20091;-58
2022/08/19 01:50:00;;;;;;;55.33;21.65;;;;;;;21.98;100.00;97420.03;5011773;28;20026;-59
2022/08/19 01:52:27;;;;;;;46.55;20.25;;;;;;;21.93;100.00;97427.63;5012662;28;20494;-59
2022/08/19 01:54:53;;;;;;;39.58;20.33;;;;;;;21.88;100.00;97440.50;5010632;28;20580;-59
2022/08/19 01:57:18;;;;;;;50.47;21.00;;;;;;;21.80;100.00;97445.69;5011827;28;20034;-59
2022/08/19 01:59:44;;;;;;;43.78;20.85;;;;;;;21.98;100.00;97435.13;5011872;28;20037;-59
2022/08/19 02:02:10;;;;;;;42.92;18.58;;;;;;;21.65;100.00;97445.34;5012121;28;20098;-59
2022/08/19 02:04:37;;;;;;;40.47;18.38;;;;;;;21.83;100.00;97437.47;5011719;28;20030;-59
2022/08/19 02:07:03;;;;;;;43.70;16.48;;;;;;;21.98;100.00;97435.97;5010358;28;20117;-59
2022/08/19 02:09:31;;;;;;;44.45;18.42;;;;;;;21.59;100.00;97433.50;5013567;28;20803;-59
2022/08/19 02:11:56;;;;;;;43.40;19.38;;;;;;;21.60;100.00;97432.53;5010702;28;20143;-59
2022/08/19 02:14:21;;;;;;;53.22;20.27;;;;;;;21.59;100.00;97432.69;5011394;28;20082;-61
2022/08/19 02:16:47;;;;;;;41.13;19.45;;;;;;;21.67;100.00;97444.25;5012744;28;20124;-59
2022/08/19 02:19:12;;;;;;;41.22;18.55;;;;;;;21.72;100.00;97463.19;5011187;28;20493;-59
2022/08/19 02:21:38;;;;;;;51.70;18.38;;;;;;;21.74;100.00;97471.88;5011702;28;20037;-59
2022/08/19 02:24:04;;;;;;;40.38;18.25;;;;;;;21.88;100.00;97473.19;5009752;28;20653;-59
2022/08/19 02:26:29;;;;;;;42.90;15.15;;;;;;;22.26;100.00;97478.50;5011658;28;20040;-58
2022/08/19 02:28:55;;;;;;;35.80;17.65;;;;;;;22.01;100.00;97474.69;5011021;28;20068;-59
2022/08/19 02:31:23;;;;;;;47.75;18.58;;;;;;;21.85;100.00;97478.78;5013874;28;20120;-59
2022/08/19 02:33:49;;;;;;;44.38;19.38;;;;;;;21.80;100.00;97486.38;5012150;28;20021;-59
2022/08/19 02:36:16;;;;;;;45.83;18.63;;;;;;;21.92;100.00;97479.03;5010387;28;20042;-59
2022/08/19 02:38:42;;;;;;;45.85;18.17;;;;;;;21.90;100.00;97475.72;5010870;28;20116;-59
2022/08/19 02:41:13;;;;;;;40.22;17.50;;;;;;;21.90;100.00;97481.00;5011739;28;20076;-59
2022/08/19 02:43:40;;;;;;;48.75;18.48;;;;;;;21.98;100.00;97485.59;5010830;28;20025;-58
2022/08/19 02:46:30;;;;;;;45.08;19.23;;;;;;;21.87;100.00;97486.59;5010540;28;20036;-59
2022/08/19 02:48:59;;;;;;;45.45;18.00;;;;;;;21.81;100.00;97492.50;5009520;28;20117;-58
2022/08/19 02:51:36;;;;;;;42.88;18.13;;;;;;;21.95;100.00;97492.03;5012655;28;20124;-59
2022/08/19 02:54:04;;;;;;;39.03;17.58;;;;;;;22.16;100.00;97482.97;5012910;28;20041;-59
2022/08/19 02:56:30;;;;;;;43.80;18.13;;;;;;;21.93;100.00;97480.72;5011410;28;20660;-59
2022/08/19 02:58:56;;;;;;;46.70;19.27;;;;;;;21.73;100.00;97495.91;5010922;28;20083;-59
2022/08/19 03:01:26;;;;;;;40.65;17.42;;;;;;;21.78;100.00;97487.50;5010551;28;20037;-60
2022/08/19 03:03:52;;;;;;;49.08;19.27;;;;;;;21.28;100.00;97496.53;5033326;28;20065;-59
2022/08/19 03:06:18;;;;;;;42.33;19.00;;;;;;;21.30;100.00;97494.56;5012704;28;20079;-59
2022/08/19 03:08:46;;;;;;;42.47;19.35;;;;;;;21.46;100.00;97491.38;5013412;28;20671;-58
2022/08/19 03:11:26;;;;;;;49.08;19.95;;;;;;;21.52;100.00;97486.34;5009944;28;20053;-59
2022/08/19 03:13:51;;;;;;;39.30;18.63;;;;;;;21.42;100.00;97484.66;5010502;28;20124;-59
2022/08/19 03:16:18;;;;;;;39.80;19.05;;;;;;;21.38;100.00;97471.66;5009872;28;20408;-59
2022/08/19 03:18:44;;;;;;;45.72;19.25;;;;;;;21.29;100.00;97467.22;5013157;28;20026;-59
2022/08/19 03:21:18;;;;;;;46.40;19.83;;;;;;;21.43;100.00;97459.78;5010745;28;20034;-58
2022/08/19 03:23:45;;;;;;;44.20;17.25;;;;;;;21.66;100.00;97447.88;5010051;28;20033;-59
2022/08/19 03:26:10;;;;;;;44.78;17.27;;;;;;;21.88;100.00;97435.19;5012007;28;20068;-59
2022/08/19 03:28:36;;;;;;;39.83;16.67;;;;;;;21.77;100.00;97438.06;5011530;28;22007;-60
2022/08/19 03:31:07;;;;;;;47.08;17.42;;;;;;;21.91;100.00;97424.28;5008192;28;20216;-59
2022/08/19 03:33:33;;;;;;;42.25;17.92;;;;;;;21.79;100.00;97426.28;5008613;28;20030;-59
2022/08/19 03:36:17;;;;;;;38.25;16.10;;;;;;;21.77;100.00;97428.25;5010319;28;20562;-59
2022/08/19 03:38:48;;;;;;;38.67;15.60;;;;;;;21.99;100.00;97411.09;5011228;28;20033;-59
2022/08/19 03:41:18;;;;;;;53.50;19.60;;;;;;;21.70;100.00;97416.56;5012556;28;20037;-58
2022/08/19 03:43:46;;;;;;;43.65;18.70;;;;;;;21.51;100.00;97422.81;5009096;28;20129;-59
2022/08/19 03:46:15;;;;;;;52.70;19.08;;;;;;;21.56;100.00;97436.47;5008246;28;20050;-58
2022/08/19 03:48:43;;;;;;;42.60;18.23;;;;;;;21.40;100.00;97445.00;5011856;28;20430;-59
2022/08/19 03:51:19;;;;;;;41.35;18.58;;;;;;;21.22;100.00;97450.22;5013629;28;20033;-59
2022/08/19 03:53:45;;;;;;;53.03;19.95;;;;;;;21.45;100.00;97445.44;5013180;28;20025;-58
2022/08/19 03:56:12;;;;;;;53.60;20.95;;;;;;;21.46;100.00;97435.66;5015396;28;20042;-59
2022/08/19 03:58:39;;;;;;;46.30;19.35;;;;;;;21.61;100.00;97434.19;5013974;28;20030;-59
2022/08/19 04:01:11;;;;;;;41.67;17.73;;;;;;;21.60;100.00;97432.53;5014113;28;20124;-59
2022/08/19 04:03:38;;;;;;;43.45;18.15;;;;;;;21.68;100.00;97423.84;5015513;28;20045;-59
2022/08/19 04:06:10;;;;;;;52.83;20.75;;;;;;;21.47;100.00;97435.53;5012172;28;20034;-59
2022/08/19 04:08:35;;;;;;;;;;;;;;;21.72;100.00;97426.03;5016773;28;20568;-59
2022/08/19 04:11:01;;;;;;;47.33;18.20;;;;;;;21.52;100.00;97429.75;5013727;28;20375;-59
2022/08/19 04:13:27;;;;;;;42.03;18.67;;;;;;;21.74;100.00;97429.41;5014109;28;20559;-59
2022/08/19 04:15:53;;;;;;;45.53;19.08;;;;;;;21.60;100.00;97435.19;5014208;28;20044;-59
2022/08/19 04:18:18;;;;;;;40.90;17.25;;;;;;;21.56;100.00;97463.00;5013865;28;20033;-59
2022/08/19 04:20:45;;;;;;;49.00;19.77;;;;;;;21.61;100.00;97459.91;5013887;28;20499;-59
2022/08/19 04:23:12;;;;;;;41.22;18.48;;;;;;;21.51;100.00;97462.59;5015810;28;20030;-60
2022/08/19 04:25:42;;;;;;;50.45;19.30;;;;;;;21.60;100.00;97469.69;5014363;28;20092;-59
2022/08/19 04:28:10;;;;;;;47.30;19.92;;;;;;;21.51;100.00;97482.00;5011670;28;20037;-59
2022/08/19 04:30:44;;;;;;;44.97;19.42;;;;;;;21.47;100.00;97487.75;5012523;28;20041;-59
2022/08/19 04:33:11;;;;;;;52.72;20.33;;;;;;;21.48;100.00;97482.28;5014145;28;20511;-59
2022/08/19 04:35:41;;;;;;;44.10;20.23;;;;;;;21.46;100.00;97480.75;5015086;28;20087;-59
2022/08/19 04:38:08;;;;;;;43.88;19.52;;;;;;;21.72;100.00;97479.13;5015191;28;20056;-59
2022/08/19 04:43:26;;;;;;;44.17;19.60;;;;;;;21.71;100.00;97504.00;5016066;28;20040;-58
2022/08/19 04:45:53;;;;;;;53.53;21.60;;;;;;;21.73;100.00;97504.69;5011981;28;20045;-60
2022/08/19 04:48:25;;;;;;;47.83;19.85;;;;;;;21.65;100.00;97507.25;5012499;28;21010;-59
2022/08/19 04:50:50;;;;;;;;;;;;;;;21.65;100.00;97501.94;5011860;28;20065;-59
2022/08/19 04:53:16;;;;;;;49.95;19.90;;;;;;;21.71;100.00;97509.31;5013217;28;19920;-59
2022/08/19 04:55:42;;;;;;;45.47;20.10;;;;;;;21.65;100.00;97522.31;5013224;28;20377;-59
2022/08/19 04:58:08;;;;;;;49.95;18.75;;;;;;;21.75;100.00;97521.31;5013962;28;20044;-59
2022/08/19 05:00:33;;;;;;;42.47;18.90;;;;;;;22.01;100.00;97509.19;5012209;28;20041;-59
2022/08/19 05:02:58;;;;;;;44.63;19.75;;;;;;;21.86;100.00;97500.88;5013073;28;20030;-60
2022/08/19 05:05:24;;;;;;;45.58;19.98;;;;;;;21.70;100.00;97518.25;5012187;28;20041;-60
2022/08/19 05:07:49;;;;;;;44.13;19.58;;;;;;;21.81;100.00;97519.88;5012638;28;20056;-59
2022/08/19 05:10:15;;;;;;;49.47;19.33;;;;;;;21.86;100.00;97528.25;5014450;28;20250;-60
2022/08/19 05:12:40;;;;;;;49.40;19.85;;;;;;;21.67;100.00;97534.47;5013796;28;20100;-59
2022/08/19 05:15:08;;;;;;;53.90;19.77;;;;;;;21.67;100.00;97553.06;5013966;28;20454;-60
2022/08/19 05:17:33;;;;;;;48.88;19.70;;;;;;;21.93;100.00;97547.94;5012451;28;20042;-60
2022/08/19 05:22:45;;;;;;;44.42;19.70;;;;;;;21.70;100.00;97544.78;5013753;28;20048;-60
2022/08/19 05:25:18;;;;;;;46.38;17.80;;;;;;;22.05;100.00;97537.94;5012127;28;20120;-61
2022/08/19 05:27:44;;;;;;;41.25;17.13;;;;;;;22.31;100.00;97538.16;5011484;28;20030;-60
2022/08/19 05:30:11;;;;;;;49.08;16.52;;;;;;;22.97;100.00;97522.84;5012945;28;20570;-58
2022/08/19 05:32:37;;;;;;;44.45;18.10;;;;;;;22.42;100.00;97529.13;5010430;28;20088;-60
2022/08/19 05:35:04;;;;;;;45.38;18.42;;;;;;;22.05;100.00;97537.94;5012369;28;20111;-60
2022/08/19 05:37:30;;;;;;;43.92;19.73;;;;;;;22.10;100.00;97540.19;5010715;28;20042;-63
2022/08/19 05:39:55;;;;;;;48.20;19.42;;;;;;;22.38;100.00;97548.19;5012931;28;20112;-59
2022/08/19 05:42:22;;;;;;;50.88;19.80;;;;;;;22.23;100.00;97545.97;5010217;28;20099;-60
2022/08/19 05:44:48;;;;;;;37.90;19.20;;;;;;;22.30;100.00;97543.63;5014106;28;20153;-60
2022/08/19 05:47:15;;;;;;;50.63;19.10;;;;;;;22.21;100.00;97541.81;5011071;28;20104;-60
2022/08/19 05:49:42;;;;;;;38.85;18.10;;;;;;;22.49;100.00;97540.00;5013044;28;20030;-60
2022/08/19 05:52:11;;;;;;;37.25;15.75;;;;;;;23.05;100.00;97525.63;5011307;28;20038;-60
2022/08/19 05:54:40;;;;;;;46.08;17.25;;;;;;;23.04;100.00;97539.91;5011620;28;20101;-60
2022/08/19 05:57:05;;;;;;;43.30;17.50;;;;;;;23.33;100.00;97538.81;5012884;28;20045;-60
2022/08/19 05:59:32;;;;;;;47.75;17.77;;;;;;;24.55;100.00;97510.34;5012558;28;20018;-60
2022/08/19 06:01:59;;;;;;;38.80;16.85;;;;;;;24.34;100.00;97511.59;5013452;28;20038;-60
2022/08/19 06:04:25;;;;;;;38.78;15.43;;;;;;;25.42;100.00;97480.53;5011160;28;20033;-60
2022/08/19 06:06:52;;;;;;;35.22;14.90;;;;;;;25.60;100.00;97470.50;5011002;28;20928;-60
2022/08/19 06:09:18;;;;;;;31.00;14.85;;;;;;;26.33;100.00;97460.53;5014403;28;20512;-60
2022/08/19 06:11:57;;;;;;;41.30;15.07;;;;;;;26.90;100.00;97456.66;5024287;28;20129;-60
2022/08/19 06:14:25;;;;;;;33.13;14.93;;;;;;;26.55;100.00;97461.59;5011218;28;20906;-60
2022/08/19 06:16:53;;;;;;;34.72;14.30;;;;;;;26.63;100.00;97460.72;5011019;28;20115;-60
2022/08/19 06:19:22;;;;;;;28.55;14.02;;;;;;;26.69;100.00;97460.84;5010777;28;20120;-61
2022/08/19 06:21:50;;;;;;;45.35;15.70;;;;;;;26.80;100.00;97456.06;5010475;28;20033;-60
2022/08/19 06:24:19;;;;;;;33.22;14.93;;;;;;;26.04;100.00;97462.03;5011528;28;20025;-60
2022/08/19 06:26:46;;;;;;;34.58;14.32;;;;;;;26.27;100.00;97450.56;5011448;28;20084;-60
2022/08/19 06:29:14;;;;;;;28.33;13.18;;;;;;;27.94;100.00;97440.78;5013160;28;20550;-60
2022/08/19 06:31:43;;;;;;;28.55;13.25;;;;;;;26.76;100.00;97452.09;5009960;28;20045;-60
2022/08/19 06:34:09;;;;;;;33.88;13.70;;;;;;;26.86;100.00;97460.72;5011532;28;20026;-60
2022/08/19 06:36:38;;;;;;;31.05;13.18;;;;;;;26.22;100.00;97468.97;5012619;28;20037;-60
2022/08/19 06:39:07;;;;;;;34.35;13.40;;;;;;;26.07;100.00;97476.88;5012331;28;20104;-60
2022/08/19 06:41:39;;;;;;;29.00;12.98;;;;;;;25.30;100.00;97488.91;5009816;28;20110;-60
2022/08/19 06:44:06;;;;;;;35.88;13.60;;;;;;;26.70;100.00;97470.53;5012222;28;20036;-60
2022/08/19 06:46:31;;;;;;;28.98;12.07;;;;;;;26.40;100.00;97479.41;5012913;28;20450;-61
2022/08/19 06:48:58;;;;;;;32.92;12.40;;;;;;;25.07;100.00;97494.09;5011189;28;20480;-60
2022/08/19 06:51:24;;;;;;;25.05;10.88;;;;;;;25.26;100.00;97489.44;5011331;28;20103;-60
2022/08/19 06:53:52;;;;;;;34.10;13.00;;;;;;;24.78;100.00;97495.41;4995674;28;20021;-60
2022/08/19 06:56:24;;;;;;;29.30;11.43;;;;;;;24.46;100.00;97511.28;5011608;28;20051;-60
2022/08/19 06:58:52;;;;;;;31.10;11.55;;;;;;;24.68;100.00;97501.88;5014528;28;20033;-60
2022/08/19 07:01:18;;;;;;;53.17;13.93;;;;;;;23.93;100.00;97514.13;5006135;28;20037;-60
2022/08/19 07:03:44;;;;;;;27.20;11.23;;;;;;;23.68;100.00;97511.28;5008633;28;20040;-60
2022/08/19 07:06:12;;;;;;;31.67;11.70;;;;;;;23.35;100.00;97531.53;5011280;28;20030;-60
2022/08/19 07:08:40;;;;;;;29.85;11.30;;;;;;;24.27;100.00;97521.22;5013574;28;20025;-60
2022/08/19 07:11:10;;;;;;;26.10;10.70;;;;;;;24.07;100.00;97514.50;5013074;28;20033;-61
2022/08/19 07:13:37;;;;;;;29.95;11.23;;;;;;;24.15;100.00;97522.50;5012866;28;20093;-61
2022/08/19 07:16:05;;;;;;;29.17;11.77;;;;;;;23.67;100.00;97528.25;5013075;28;20042;-60
2022/08/19 07:18:31;;;;;;;29.15;11.55;;;;;;;23.67;100.00;97533.56;5012431;28;20108;-60
2022/08/19 07:21:14;;;;;;;26.83;11.35;;;;;;;23.59;100.00;97549.47;5012252;28;20059;-63
2022/08/19 07:23:40;;;;;;;28.67;11.77;;;;;;;23.19;100.00;97553.50;5015147;28;20066;-62
2022/08/19 07:26:19;;;;;;;30.73;12.48;;;;;;;23.41;100.00;97556.66;5015823;28;20025;-60
2022/08/19 07:28:45;;;;;;;33.53;11.85;;;;;;;23.84;100.00;97552.34;5019550;28;20026;-62
2022/08/19 07:31:13;;;;;;;26.38;11.77;;;;;;;23.13;100.00;97562.09;5016015;28;20051;-64
2022/08/19 07:33:41;;;;;;;34.80;13.20;;;;;;;23.67;100.00;97554.88;5018875;28;20135;-61
2022/08/19 07:36:11;;;;;;;28.20;12.00;;;;;;;23.33;100.00;97553.97;5016317;28;20038;-61
2022/08/19 07:38:38;;;;;;;40.28;13.45;;;;;;;23.12;100.00;97567.56;5018703;28;20533;-61
2022/08/19 07:41:03;;;;;;;28.30;12.07;;;;;;;23.09;100.00;97563.41;5017690;28;20045;-60
2022/08/19 07:43:29;;;;;;;34.20;13.45;;;;;;;23.34;100.00;97567.09;5019247;28;20083;-61
2022/08/19 07:45:57;;;;;;;33.90;13.07;;;;;;;23.39;100.00;97563.97;5024712;28;20030;-60
2022/08/19 07:48:25;;;;;;;29.67;11.63;;;;;;;23.74;100.00;97563.06;5017215;28;20150;-60
2022/08/19 07:50:54;;;;;;;39.03;13.52;;;;;;;23.06;100.00;97561.88;5017794;28;20063;-60
2022/08/19 07:53:21;;;;;;;32.45;12.48;;;;;;;23.71;100.00;97554.53;5015997;28;20021;-61
2022/08/19 07:55:47;;;;;;;37.78;13.00;;;;;;;23.72;100.00;97556.22;5016862;28;20030;-61
2022/08/19 07:58:17;;;;;;;29.23;10.88;;;;;;;23.81;100.00;97552.66;5019592;28;20037;-60
2022/08/19 08:00:44;;;;;;;37.60;13.10;;;;;;;23.46;100.00;97549.06;5017145;28;20083;-61
2022/08/19 08:03:10;;;;;;;27.63;11.43;;;;;;;23.50;100.00;97550.41;5016411;28;20120;-60
2022/08/19 08:11:23;;;;;;;26.13;10.82;;;;;;;23.66;100.00;97541.72;4992685;28;20046;-61
2022/08/19 08:13:49;;;;;;;29.08;10.70;;;;;;;23.75;100.00;97545.28;4992710;28;20040;-62
2022/08/19 08:16:14;;;;;;;26.90;10.73;;;;;;;24.10;100.00;97530.16;5003835;28;20073;-61
2022/08/19 08:18:42;;;;;;;22.98;9.48;;;;;;;23.97;100.00;97539.44;5015340;28;20467;-60
2022/08/19 08:21:08;;;;;;;26.73;10.30;;;;;;;24.03;100.00;97530.78;5017089;28;20117;-61
2022/08/19 08:23:34;;;;;;;22.83;9.77;;;;;;;23.80;100.00;97530.53;5015747;28;20196;-60
2022/08/19 08:26:00;;;;;;;33.97;12.02;;;;;;;23.71;100.00;97541.22;5016642;28;20628;-60
2022/08/19 08:28:29;;;;;;;29.25;11.02;;;;;;;23.46;100.00;97546.41;5016770;28;20022;-61
2022/08/19 08:30:55;;;;;;;31.17;12.00;;;;;;;23.52;100.00;97529.81;5015778;28;20041;-62
2022/08/19 08:33:23;;;;;;;21.75;8.65;;;;;;;24.61;100.00;97518.53;5017237;28;20029;-60
2022/08/19 08:35:49;;;;;;;26.55;11.43;;;;;;;23.10;100.00;97538.47;5014073;28;20515;-60
2022/08/19 08:38:15;;;;;;;33.10;11.30;;;;;;;23.50;100.00;97538.94;5017720;28;20029;-64
2022/08/19 08:40:49;;;;;;;30.88;12.20;;;;;;;23.05;100.00;97546.09;5012967;28;20030;-60
2022/08/19 08:43:30;;;;;;;35.85;13.18;;;;;;;23.03;100.00;97558.66;5017303;28;20386;-60
2022/08/19 08:46:09;;;;;;;26.80;12.57;;;;;;;23.16;100.00;97550.31;5017569;28;20089;-61
2022/08/19 08:48:44;;;;;;;31.08;12.38;;;;;;;23.39;100.00;97538.19;5016728;28;20037;-62
2022/08/19 08:51:16;;;;;;;29.60;11.10;;;;;;;23.44;100.00;97545.72;5015448;28;20044;-61
2022/08/19 08:53:43;;;;;;;28.38;10.85;;;;;;;23.51;100.00;97556.56;5015959;28;20033;-60
2022/08/19 08:56:12;;;;;;;33.65;12.55;;;;;;;23.79;100.00;97554.63;5015400;28;20402;-61
2022/08/19 08:59:16;;;;;;;32.47;13.18;;;;;;;22.95;100.00;97567.38;5018787;28;20813;-61
2022/08/19 09:01:43;;;;;;;26.08;11.18;;;;;;;24.01;100.00;97547.94;5023702;28;20500;-63
2022/08/19 09:04:11;;;;;;;23.10;8.75;;;;;;;24.55;100.00;97532.50;5016127;28;20033;-65
2022/08/19 09:06:46;;;;;;;31.42;12.23;;;;;;;24.39;100.00;97535.94;5016254;28;20036;-62
2022/08/19 09:09:19;;;;;;;27.55;12.45;;;;;;;24.07;100.00;97535.81;5017295;28;20115;-61
2022/08/19 09:11:51;;;;;;;34.53;14.38;;;;;;;23.93;100.00;97539.88;5015369;28;20061;-60
2022/08/19 09:14:40;;;;;;;37.65;13.38;;;;;;;23.58;100.00;97541.66;5015156;28;20029;-63
2022/08/19 09:17:10;;;;;;;38.20;15.18;;;;;;;23.60;100.00;97545.84;5014441;28;20121;-61
2022/08/19 09:19:49;;;;;;;34.58;13.02;;;;;;;24.44;100.00;97528.31;5018323;28;20634;-63
2022/08/19 09:22:14;;;;;;;32.90;13.13;;;;;;;24.52;100.00;97535.50;5014407;28;20120;-63
2022/08/19 09:24:40;;;;;;;35.55;14.10;;;;;;;23.93;100.00;97540.75;5017321;28;20112;-60
2022/08/19 09:27:06;;;;;;;30.73;11.98;;;;;;;24.67;100.00;97526.88;5014072;28;20466;-60
2022/08/19 09:29:31;;;;;;;34.15;12.05;;;;;;;24.49;100.00;97529.63;5015520;28;20543;-62
2022/08/19 09:31:56;;;;;;;25.92;12.38;;;;;;;23.80;100.00;97541.19;5014552;28;20037;-60
2022/08/19 09:34:22;;;;;;;30.48;12.45;;;;;;;24.07;100.00;97541.13;5014501;28;20043;-61
2022/08/19 09:36:54;;;;;;;36.70;13.23;;;;;;;24.08;100.00;97542.78;5012352;28;20037;-61
2022/08/19 09:39:19;;;;;;;31.83;12.80;;;;;;;23.74;100.00;97551.59;5020821;28;20056;-61
2022/08/19 09:41:44;;;;;;;32.08;12.20;;;;;;;24.04;100.00;97548.47;5011076;28;20520;-60
2022/08/19 09:44:12;;;;;;;26.63;11.27;;;;;;;24.05;100.00;97542.13;5016240;28;20113;-60
2022/08/19 09:46:37;;;;;;;29.75;11.98;;;;;;;23.98;100.00;97535.75;5014631;28;20045;-61
2022/08/19 09:49:05;;;;;;;34.75;11.98;;;;;;;24.17;100.00;97531.16;5014370;28;20687;-60
2022/08/19 09:51:31;;;;;;;27.13;11.30;;;;;;;24.23;100.00;97526.03;5014533;28;20042;-60
2022/08/19 09:54:01;;;;;;;35.33;12.65;;;;;;;24.02;100.00;97529.13;5014701;28;20028;-61
2022/08/19 09:56:28;;;;;;;28.63;12.98;;;;;;;23.38;100.00;97541.88;5012364;28;20708;-60
2022/08/19 09:58:53;;;;;;;38.67;14.27;;;;;;;23.41;100.00;97554.00;5015281;28;20148;-61
2022/08/19 10:01:25;;;;;;;31.35;13.77;;;;;;;23.49;100.00;97556.75;5014255;28;20065;-61
2022/08/19 10:03:54;;;;;;;29.90;10.55;;;;;;;24.22;100.00;97550.19;5014318;28;20069;-62
2022/08/19 10:06:22;;;;;;;30.88;12.68;;;;;;;22.82;100.00;97554.47;5020049;28;20064;-60
2022/08/19 10:08:48;;;;;;;28.92;13.18;;;;;;;23.50;100.00;97555.75;5014562;28;20113;-64
2022/08/19 10:11:15;;;;;;;30.42;13.05;;;;;;;23.54;100.00;97562.41;5013154;28;20141;-62
2022/08/19 10:13:42;;;;;;;31.20;13.23;;;;;;;23.42;100.00;97563.69;5015712;28;20029;-62
2022/08/19 10:16:10;;;;;;;36.60;14.70;;;;;;;23.60;100.00;97561.81;5015253;28;20117;-62
2022/08/19 10:18:37;;;;;;;31.17;13.32;;;;;;;23.63;100.00;97556.16;5014831;28;20036;-62
2022/08/19 10:21:14;;;;;;;36.80;13.63;;;;;;;23.33;100.00;97568.09;5015487;28;20099;-64
2022/08/19 10:23:44;;;;;;;31.52;13.43;;;;;;;23.60;100.00;97566.28;5013922;28;20029;-61
2022/08/19 10:26:15;;;;;;;37.13;12.80;;;;;;;23.71;100.00;97562.53;5011600;28;20112;-61
2022/08/19 10:28:40;;;;;;;23.67;9.55;;;;;;;24.25;100.00;97549.88;5016860;28;20458;-61
2022/08/19 10:31:09;;;;;;;33.35;14.27;;;;;;;23.92;100.00;97562.22;5014338;28;20503;-60
2022/08/19 10:33:35;;;;;;;30.02;13.60;;;;;;;23.72;100.00;97564.22;5014615;28;20030;-59
2022/08/19 10:36:11;;;;;;;28.52;12.43;;;;;;;24.25;100.00;97563.19;5013013;28;20097;-60
2022/08/19 10:38:37;;;;;;;31.55;12.38;;;;;;;24.44;100.00;97557.63;5014645;28;20049;-62
2022/08/19 10:41:14;;;;;;;26.58;12.00;;;;;;;23.63;100.00;97566.81;5013943;28;20049;-60
2022/08/19 10:43:41;;;;;;;31.80;15.35;;;;;;;23.50;100.00;97574.38;5014504;28;20030;-59
2022/08/19 10:46:09;;;;;;;28.90;13.82;;;;;;;23.91;100.00;97569.34;5013536;28;20039;-59
2022/08/19 10:48:35;;;;;;;31.27;14.50;;;;;;;23.49;100.00;97578.03;5014077;28;20048;-59
2022/08/19 10:53:45;;;;;;;29.85;12.77;;;;;;;23.84;100.00;97584.31;5012103;28;20715;-59
2022/08/19 10:58:56;;;;;;;32.83;15.20;;;;;;;23.28;100.00;97589.81;5012551;28;20044;-59
2022/08/19 11:01:21;;;;;;;41.88;16.60;;;;;;;23.51;100.00;97568.06;5012411;28;20104;-60
2022/08/19 11:03:47;;;;;;;38.70;15.98;;;;;;;23.71;100.00;97584.69;5011866;28;20104;-62
2022/08/19 11:06:12;;;;;;;39.22;16.15;;;;;;;23.59;100.00;97583.25;5015607;28;20026;-59
2022/08/19 11:08:37;;;;;;;35.00;14.82;;;;;;;23.76;100.00;97581.53;5016106;28;20087;-62
2022/08/19 11:11:05;;;;;;;32.08;14.70;;;;;;;23.44;100.00;97585.66;5014911;28;20200;-61
2022/08/19 11:13:35;;;;;;;39.25;15.18;;;;;;;23.60;100.00;97580.44;5011954;28;20033;-61
2022/08/19 11:16:10;;;;;;;35.70;15.80;;;;;;;23.46;100.00;97595.13;5013754;28;20602;-61
2022/08/19 11:18:38;;;;;;;42.28;17.52;;;;;;;23.44;100.00;97585.66;5013331;28;20029;-62
2022/08/19 11:21:07;;;;;;;29.70;14.60;;;;;;;23.56;100.00;97584.38;5012539;28;20048;-59
2022/08/19 11:23:33;;;;;;;42.00;16.58;;;;;;;23.42;100.00;97588.47;5013563;28;20531;-60
2022/08/19 11:25:59;;;;;;;37.38;17.48;;;;;;;23.14;100.00;97589.53;5015905;28;20125;-59
2022/08/19 11:28:24;;;;;;;34.75;13.20;;;;;;;23.36;100.00;97588.22;5014564;28;20021;-59
2022/08/19 11:30:50;;;;;;;43.05;18.35;;;;;;;22.91;100.00;97588.13;5011004;28;20041;-59